Time;durP1;ratioP1;P1;durP2;ratioP2;P2;SDS_P1;SDS_P2;PMS_P1;PMS_P2;Temp;Humidity;BMP_temperature;BMP_pressure;BME280_temperature;BME280_humidity;BME280_pressure;Samples;Min_cycle;Max_cycle;Signal;HPM_P1;HPM_P2
2023/02/19 00:01:17;;;;;;;11.03;10.13;;;12.40;99.90;;;;;;4993349;28;20411;-68
2023/02/19 00:03:53;;;;;;;10.83;9.73;;;12.40;99.90;;;;;;4992664;28;20586;-68
2023/02/19 00:06:21;;;;;;;10.60;9.70;;;12.30;99.90;;;;;;4993364;28;20403;-68
2023/02/19 00:08:47;;;;;;;10.40;9.60;;;12.30;99.90;;;;;;4992593;28;20842;-68
2023/02/19 00:11:15;;;;;;;10.20;9.30;;;12.30;99.90;;;;;;4992734;28;20494;-68
2023/02/19 00:13:44;;;;;;;15.43;12.27;;;12.30;99.90;;;;;;4992984;28;20260;-68
2023/02/19 00:16:15;;;;;;;10.97;9.97;;;12.30;99.90;;;;;;4993137;28;20824;-69
2023/02/19 00:18:42;;;;;;;10.60;9.63;;;12.30;99.90;;;;;;4975079;28;20919;-68
2023/02/19 00:21:08;;;;;;;11.80;10.80;;;12.30;99.90;;;;;;4975796;28;20465;-68
2023/02/19 00:23:34;;;;;;;11.50;10.50;;;12.30;99.90;;;;;;4992954;28;20448;-69
2023/02/19 00:26:08;;;;;;;11.33;10.23;;;12.30;99.90;;;;;;4992702;28;20420;-68
2023/02/19 00:28:34;;;;;;;12.20;11.10;;;12.20;99.90;;;;;;4993036;28;20414;-68
2023/02/19 00:31:08;;;;;;;13.40;12.20;;;12.20;99.90;;;;;;4992334;28;20412;-68
2023/02/19 00:33:34;;;;;;;12.43;11.23;;;12.20;99.90;;;;;;4992983;28;20411;-68
2023/02/19 00:36:01;;;;;;;12.73;11.43;;;12.20;99.90;;;;;;4992412;28;20506;-68
2023/02/19 00:38:27;;;;;;;13.10;11.77;;;12.20;99.90;;;;;;4992994;28;20456;-68
2023/02/19 00:40:53;;;;;;;12.37;11.17;;;12.20;99.90;;;;;;4992354;28;20407;-68
2023/02/19 00:43:18;;;;;;;11.90;10.80;;;12.30;99.90;;;;;;4992930;28;20207;-69
2023/02/19 00:45:44;;;;;;;12.63;11.47;;;12.20;99.90;;;;;;4992319;28;20687;-68
2023/02/19 00:48:09;;;;;;;12.23;11.13;;;12.20;99.90;;;;;;4992821;28;20524;-68
2023/02/19 00:50:35;;;;;;;11.40;10.50;;;12.20;99.90;;;;;;4992867;28;20206;-69
2023/02/19 00:53:01;;;;;;;10.70;9.77;;;12.20;99.90;;;;;;4974877;28;20690;-68
2023/02/19 00:55:26;;;;;;;11.53;10.53;;;12.30;99.90;;;;;;4992502;28;20179;-69
2023/02/19 00:57:52;;;;;;;11.00;10.00;;;12.30;99.90;;;;;;4992223;28;20255;-69
2023/02/19 01:00:18;;;;;;;9.90;9.00;;;12.30;99.90;;;;;;4992803;28;20507;-68
2023/02/19 01:02:43;;;;;;;10.37;9.57;;;12.30;99.90;;;;;;4995636;28;20206;-68
2023/02/19 01:05:09;;;;;;;10.57;9.60;;;12.40;99.90;;;;;;4996360;28;20182;-69
2023/02/19 01:07:36;;;;;;;9.70;8.90;;;12.40;99.90;;;;;;4996279;28;20685;-68
2023/02/19 01:10:03;;;;;;;9.97;9.10;;;12.40;99.90;;;;;;4995660;28;20769;-68
2023/02/19 01:12:30;;;;;;;9.47;8.87;;;12.40;99.90;;;;;;4995913;28;20467;-68
2023/02/19 01:14:56;;;;;;;8.10;7.40;;;12.30;99.90;;;;;;4995544;28;20443;-69
2023/02/19 01:17:22;;;;;;;8.73;8.13;;;12.30;99.90;;;;;;4996126;28;20600;-68
2023/02/19 01:19:48;;;;;;;7.83;7.23;;;12.40;99.90;;;;;;4995547;28;20436;-69
2023/02/19 01:22:14;;;;;;;8.67;8.07;;;12.40;99.90;;;;;;4995942;28;20536;-68
2023/02/19 01:24:39;;;;;;;8.50;7.90;;;12.30;99.90;;;;;;4996000;28;20184;-68
2023/02/19 01:27:05;;;;;;;8.57;7.97;;;12.30;99.90;;;;;;4977760;28;20191;-69
2023/02/19 01:29:31;;;;;;;8.90;8.20;;;12.40;99.90;;;;;;4995895;28;20183;-68
2023/02/19 01:31:56;;;;;;;8.57;7.87;;;12.40;99.90;;;;;;4995182;28;20603;-69
2023/02/19 01:34:22;;;;;;;8.67;8.07;;;12.40;99.90;;;;;;4996116;28;20208;-68
2023/02/19 01:36:48;;;;;;;8.97;8.27;;;12.40;99.90;;;;;;4995184;28;20187;-68
2023/02/19 01:39:13;;;;;;;8.67;8.00;;;12.40;99.90;;;;;;4978215;28;20186;-69
2023/02/19 01:41:40;;;;;;;8.63;7.93;;;12.40;99.90;;;;;;4978034;28;20191;-69
2023/02/19 01:44:17;;;;;;;8.60;8.00;;;12.40;99.90;;;;;;4994999;28;20272;-69
2023/02/19 01:46:45;;;;;;;10.40;9.40;;;12.30;99.90;;;;;;4995586;28;20419;-68
2023/02/19 01:49:13;;;;;;;9.97;9.10;;;12.40;99.90;;;;;;4995455;28;20421;-69
2023/02/19 01:51:43;;;;;;;10.10;9.20;;;12.40;99.90;;;;;;4995578;28;20412;-69
2023/02/19 01:54:11;;;;;;;10.67;9.67;;;12.30;99.90;;;;;;4994622;28;20404;-69
2023/02/19 01:56:41;;;;;;;11.63;10.63;;;12.30;99.90;;;;;;4995339;28;20404;-68
2023/02/19 01:59:07;;;;;;;11.50;10.40;;;12.30;99.90;;;;;;4994740;28;20414;-69
2023/02/19 02:01:34;;;;;;;11.43;10.30;;;12.40;99.90;;;;;;4995039;28;20777;-68
2023/02/19 02:04:00;;;;;;;12.23;11.13;;;12.20;99.90;;;;;;4994646;28;20464;-69
2023/02/19 02:06:33;;;;;;;10.47;9.57;;;12.30;99.90;;;;;;4994863;28;20746;-68
2023/02/19 02:11:49;;;;;;;12.13;10.63;;;12.30;99.90;;;;;;4994989;28;20466;-68
2023/02/19 02:14:23;;;;;;;11.20;10.20;;;12.30;99.90;;;;;;4994458;28;20502;-69
2023/02/19 02:17:06;;;;;;;11.23;10.13;;;12.20;99.90;;;;;;4994457;28;20406;-69
2023/02/19 02:19:47;;;;;;;11.07;9.97;;;12.30;99.90;;;;;;4995178;28;20430;-68
2023/02/19 02:22:17;;;;;;;11.30;10.30;;;12.30;99.90;;;;;;4994815;28;20422;-69
2023/02/19 02:25:07;;;;;;;11.20;10.20;;;12.20;99.90;;;;;;4994922;28;20546;-68
2023/02/19 02:27:51;;;;;;;11.37;10.37;;;12.20;99.90;;;;;;4994809;28;20883;-68
2023/02/19 02:30:30;;;;;;;11.30;10.27;;;12.30;99.90;;;;;;4994630;28;20986;-69
2023/02/19 02:33:34;;;;;;;10.90;9.93;;;12.30;99.90;;;;;;4994209;28;20463;-68
2023/02/19 02:36:04;;;;;;;11.47;10.27;;;12.30;99.90;;;;;;4994167;28;20751;-69
2023/02/19 02:38:32;;;;;;;13.47;10.90;;;12.20;99.90;;;;;;4994565;28;20423;-68
2023/02/19 02:40:58;;;;;;;12.53;11.23;;;12.20;99.90;;;;;;4993996;28;20418;-69
2023/02/19 02:43:24;;;;;;;14.50;12.00;;;12.10;99.90;;;;;;4994572;28;20478;-69
2023/02/19 02:45:49;;;;;;;14.63;13.10;;;12.00;99.90;;;;;;4993934;28;20869;-69
2023/02/19 02:48:43;;;;;;;15.80;14.20;;;12.10;99.90;;;;;;4977102;28;20184;-69
2023/02/19 02:51:29;;;;;;;17.90;15.13;;;12.00;99.90;;;;;;4993756;28;20202;-69
2023/02/19 02:57:00;;;;;;;20.27;16.07;;;11.90;99.90;;;;;;4975985;28;20422;-69
2023/02/19 02:59:30;;;;;;;22.33;16.93;;;12.00;99.90;;;;;;4976419;28;20426;-68
2023/02/19 03:02:10;;;;;;;23.40;16.90;;;12.00;99.90;;;;;;4993272;28;20414;-69
2023/02/19 03:07:42;;;;;;;19.47;16.10;;;12.00;99.90;;;;;;4994124;28;20472;-69
2023/02/19 03:10:13;;;;;;;16.77;14.33;;;12.00;99.90;;;;;;4993418;28;20414;-68
2023/02/19 03:21:03;;;;;;;24.80;17.90;;;12.00;99.90;;;;;;4993367;28;20411;-69
2023/02/19 03:26:17;;;;;;;23.07;18.60;;;11.90;99.90;;;;;;4992678;28;20403;-69
2023/02/19 03:31:32;;;;;;;21.90;17.30;;;11.90;99.90;;;;;;4993905;28;20399;-68
2023/02/19 03:34:07;;;;;;;23.13;18.77;;;11.80;99.90;;;;;;4993325;28;20459;-69
2023/02/19 03:36:47;;;;;;;20.60;16.87;;;11.80;99.90;;;;;;4993364;28;20433;-68
2023/02/19 03:39:16;;;;;;;24.17;17.67;;;11.90;99.90;;;;;;4992752;28;20441;-68
2023/02/19 03:41:45;;;;;;;19.93;17.17;;;11.90;99.90;;;;;;4993587;28;20438;-68
2023/02/19 03:44:34;;;;;;;24.00;17.60;;;11.90;99.90;;;;;;4959005;28;20467;-69
2023/02/19 03:47:04;;;;;;;23.80;16.70;;;11.80;99.90;;;;;;4993185;28;20410;-69
2023/02/19 03:49:48;;;;;;;21.33;17.60;;;11.90;99.90;;;;;;4993671;28;20868;-68
2023/02/19 03:52:22;;;;;;;20.77;17.43;;;11.90;99.90;;;;;;4992805;28;20391;-68
2023/02/19 03:55:20;;;;;;;24.83;17.50;;;11.90;99.90;;;;;;4993547;28;20407;-69
2023/02/19 03:58:10;;;;;;;22.63;16.67;;;11.80;99.90;;;;;;4974032;28;20475;-69
2023/02/19 04:00:53;;;;;;;21.00;17.17;;;11.80;99.90;;;;;;4993376;28;20498;-68
2023/02/19 04:03:38;;;;;;;18.93;16.80;;;11.70;99.90;;;;;;4993356;28;20458;-69
2023/02/19 04:06:12;;;;;;;20.43;16.30;;;11.70;99.90;;;;;;4992661;28;20418;-69
2023/02/19 04:08:41;;;;;;;24.80;16.80;;;11.80;99.90;;;;;;4975894;28;20407;-68
2023/02/19 04:11:08;;;;;;;22.00;16.27;;;11.70;99.90;;;;;;4992370;28;20527;-68
2023/02/19 04:13:51;;;;;;;26.00;18.10;;;11.70;99.90;;;;;;4993000;28;20445;-68
2023/02/19 04:16:23;;;;;;;20.17;16.10;;;11.80;99.90;;;;;;4992682;28;20401;-69
2023/02/19 04:18:53;;;;;;;20.07;16.57;;;11.80;99.90;;;;;;4993173;28;20421;-68
2023/02/19 04:21:21;;;;;;;21.37;15.57;;;11.80;99.90;;;;;;4992504;28;20753;-68
2023/02/19 04:23:47;;;;;;;20.27;16.00;;;11.90;99.90;;;;;;4975537;28;20863;-68
2023/02/19 04:26:14;;;;;;;22.43;17.27;;;11.90;99.90;;;;;;4992489;28;20423;-69
2023/02/19 04:28:41;;;;;;;20.43;17.00;;;11.80;99.90;;;;;;4993110;28;20482;-68
2023/02/19 04:31:07;;;;;;;26.87;17.03;;;11.90;99.90;;;;;;4992482;28;20577;-68
2023/02/19 04:33:33;;;;;;;21.60;17.73;;;11.90;99.90;;;;;;4992986;28;20945;-69
2023/02/19 04:35:59;;;;;;;23.30;16.77;;;12.00;99.90;;;;;;4992109;28;20186;-69
2023/02/19 04:38:25;;;;;;;23.40;17.20;;;11.90;99.90;;;;;;4996909;28;20419;-69
2023/02/19 04:40:50;;;;;;;21.50;16.87;;;12.00;99.90;;;;;;4996687;28;20185;-69
2023/02/19 04:43:17;;;;;;;24.37;18.60;;;12.00;99.90;;;;;;4996117;28;20246;-69
2023/02/19 04:45:42;;;;;;;20.73;17.03;;;11.90;99.90;;;;;;4996741;28;20206;-69
2023/02/19 04:48:08;;;;;;;21.90;16.60;;;11.90;99.90;;;;;;4996053;28;20416;-68
2023/02/19 04:50:37;;;;;;;23.90;17.27;;;11.90;99.90;;;;;;4996629;28;20202;-69
2023/02/19 04:53:03;;;;;;;24.37;17.73;;;11.90;99.90;;;;;;4995893;28;20461;-69
2023/02/19 04:55:29;;;;;;;22.93;17.70;;;11.90;99.90;;;;;;4996624;28;20439;-69
2023/02/19 04:57:54;;;;;;;24.37;17.37;;;12.00;99.90;;;;;;4996269;28;20280;-69
2023/02/19 05:00:20;;;;;;;23.03;17.13;;;11.90;99.90;;;;;;4995868;28;20172;-69
2023/02/19 05:02:46;;;;;;;21.77;17.40;;;11.90;99.90;;;;;;4996379;28;20212;-68
2023/02/19 05:05:12;;;;;;;23.90;18.33;;;11.90;99.90;;;;;;4995500;28;20184;-68
2023/02/19 05:07:37;;;;;;;21.87;17.40;;;11.90;99.90;;;;;;4996051;28;20416;-68
2023/02/19 05:10:04;;;;;;;22.07;18.93;;;12.00;99.90;;;;;;4995696;28;20173;-69
2023/02/19 05:12:30;;;;;;;23.37;18.77;;;12.00;99.90;;;;;;4996334;28;20258;-68
2023/02/19 05:14:56;;;;;;;24.97;20.40;;;12.00;99.90;;;;;;4996194;28;20440;-69
2023/02/19 05:17:24;;;;;;;24.00;19.23;;;11.90;99.90;;;;;;4994315;28;20446;-69
2023/02/19 05:19:50;;;;;;;25.97;18.77;;;11.90;99.90;;;;;;4978810;28;20415;-68
2023/02/19 05:22:15;;;;;;;21.80;18.90;;;11.80;99.90;;;;;;4995364;28;20409;-69
2023/02/19 05:24:41;;;;;;;22.23;17.53;;;11.80;99.90;;;;;;4996183;28;20199;-69
2023/02/19 05:27:07;;;;;;;21.10;17.47;;;11.90;99.90;;;;;;4995343;28;20628;-68
2023/02/19 05:29:32;;;;;;;21.00;16.50;;;11.90;99.90;;;;;;4995979;28;20618;-69
2023/02/19 05:31:58;;;;;;;23.30;17.37;;;11.80;99.90;;;;;;4995893;28;20429;-68
2023/02/19 05:34:24;;;;;;;20.33;16.33;;;11.90;99.90;;;;;;4995840;28;20187;-69
2023/02/19 05:36:50;;;;;;;18.07;15.83;;;11.80;99.90;;;;;;4996107;28;20418;-68
2023/02/19 05:39:15;;;;;;;17.90;15.50;;;11.80;99.90;;;;;;4995407;28;20183;-69
2023/02/19 05:41:41;;;;;;;18.07;15.07;;;11.80;99.90;;;;;;4995428;28;20205;-68
2023/02/19 05:44:09;;;;;;;17.30;15.40;;;11.70;99.90;;;;;;4995068;28;20214;-69
2023/02/19 05:46:35;;;;;;;16.73;14.93;;;11.80;99.90;;;;;;4995987;28;20223;-69
2023/02/19 05:49:00;;;;;;;22.40;16.00;;;11.70;99.90;;;;;;4993946;28;20425;-68
2023/02/19 05:51:26;;;;;;;21.97;15.90;;;11.70;99.90;;;;;;4995501;28;20231;-69
2023/02/19 05:53:52;;;;;;;19.23;16.80;;;11.70;99.90;;;;;;4995504;28;20187;-69
2023/02/19 05:56:39;;;;;;;20.60;16.80;;;11.60;99.90;;;;;;4994784;28;20415;-69
2023/02/19 05:59:24;;;;;;;20.47;16.00;;;11.60;99.90;;;;;;4994879;28;20401;-69
2023/02/19 06:01:53;;;;;;;22.07;16.63;;;11.60;99.90;;;;;;4995128;28;20436;-68
2023/02/19 06:04:19;;;;;;;23.70;18.30;;;11.60;99.90;;;;;;4994312;28;20952;-69
2023/02/19 06:06:46;;;;;;;24.83;18.67;;;11.60;99.90;;;;;;4995307;28;20421;-68
2023/02/19 06:09:12;;;;;;;23.37;18.70;;;11.50;99.90;;;;;;4994605;28;20427;-69
2023/02/19 06:11:38;;;;;;;21.67;18.57;;;11.50;99.90;;;;;;4994710;28;20598;-69
2023/02/19 06:14:05;;;;;;;21.83;18.40;;;11.50;99.90;;;;;;4994560;28;20426;-69
2023/02/19 06:16:32;;;;;;;21.90;17.60;;;11.60;99.90;;;;;;4995054;28;20438;-69
2023/02/19 06:19:01;;;;;;;21.27;17.80;;;11.60;99.90;;;;;;4994999;28;20507;-68
2023/02/19 06:21:26;;;;;;;24.57;18.90;;;11.60;99.90;;;;;;4994764;28;20409;-69
2023/02/19 06:23:53;;;;;;;19.70;17.60;;;11.60;99.90;;;;;;4994962;28;20468;-68
2023/02/19 06:26:21;;;;;;;21.60;18.00;;;11.60;99.90;;;;;;4994309;28;20183;-68
2023/02/19 06:28:48;;;;;;;21.60;17.50;;;11.60;99.90;;;;;;4994870;28;20419;-68
2023/02/19 06:31:14;;;;;;;24.00;18.07;;;11.60;99.90;;;;;;4977070;28;20493;-69
2023/02/19 06:33:40;;;;;;;20.63;17.00;;;11.70;99.90;;;;;;4977228;28;20430;-69
2023/02/19 06:36:12;;;;;;;22.53;17.53;;;11.70;99.90;;;;;;4994097;28;20419;-69
2023/02/19 06:38:38;;;;;;;24.43;19.03;;;11.70;99.90;;;;;;4994808;28;20403;-69
2023/02/19 06:41:06;;;;;;;24.70;20.50;;;11.70;99.90;;;;;;4994111;28;20732;-69
2023/02/19 06:43:32;;;;;;;23.00;19.87;;;11.70;99.90;;;;;;4994501;28;20499;-69
2023/02/19 06:45:59;;;;;;;22.00;18.67;;;11.70;99.90;;;;;;4994319;28;20414;-69
2023/02/19 06:48:26;;;;;;;24.83;20.10;;;11.70;99.90;;;;;;4993862;28;20470;-69
2023/02/19 06:50:52;;;;;;;23.00;19.37;;;11.80;99.90;;;;;;4994412;28;20468;-69
2023/02/19 06:53:17;;;;;;;22.37;17.60;;;11.80;99.90;;;;;;4994050;28;20515;-69
2023/02/19 06:55:43;;;;;;;18.53;15.87;;;11.80;99.90;;;;;;4994347;28;20473;-69
2023/02/19 06:58:09;;;;;;;18.27;14.90;;;11.80;99.90;;;;;;4993604;28;20179;-68
2023/02/19 07:00:35;;;;;;;20.70;17.00;;;11.80;99.90;;;;;;4994010;28;20207;-68
2023/02/19 07:03:00;;;;;;;18.47;15.90;;;11.90;99.90;;;;;;4994184;28;20533;-69
2023/02/19 07:05:26;;;;;;;21.77;17.43;;;11.90;99.90;;;;;;4993632;28;20187;-69
2023/02/19 07:07:52;;;;;;;18.63;16.70;;;11.80;99.90;;;;;;4976784;28;20625;-68
2023/02/19 07:10:17;;;;;;;18.87;16.20;;;11.80;99.90;;;;;;4993535;28;20627;-69
2023/02/19 07:12:46;;;;;;;20.90;16.13;;;11.80;99.90;;;;;;4993459;28;20705;-68
2023/02/19 07:15:11;;;;;;;19.00;16.17;;;11.80;99.90;;;;;;4993333;28;20463;-69
2023/02/19 07:17:37;;;;;;;19.77;16.50;;;11.70;99.90;;;;;;4994060;28;20627;-69
2023/02/19 07:20:03;;;;;;;17.87;15.97;;;11.60;99.90;;;;;;4993595;28;20538;-68
2023/02/19 07:22:29;;;;;;;20.80;16.10;;;11.60;99.90;;;;;;4975914;28;20207;-68
2023/02/19 07:24:54;;;;;;;17.37;15.50;;;11.60;99.90;;;;;;4976428;28;20433;-68
2023/02/19 07:27:20;;;;;;;21.07;16.87;;;11.60;99.90;;;;;;4993226;28;20175;-69
2023/02/19 07:29:46;;;;;;;18.23;16.43;;;11.50;99.90;;;;;;4993446;28;20203;-68
2023/02/19 07:32:11;;;;;;;17.63;15.73;;;11.50;99.90;;;;;;4993057;28;20247;-69
2023/02/19 07:34:37;;;;;;;18.37;16.00;;;11.50;99.90;;;;;;4976128;28;20431;-69
2023/02/19 07:37:03;;;;;;;17.33;15.53;;;11.60;99.90;;;;;;4993605;28;20230;-69
2023/02/19 07:39:29;;;;;;;17.03;15.33;;;11.60;99.90;;;;;;4975709;28;20177;-69
2023/02/19 07:41:54;;;;;;;18.50;16.20;;;11.60;99.90;;;;;;4993676;28;20415;-68
2023/02/19 07:44:20;;;;;;;21.53;16.47;;;11.60;99.90;;;;;;4992821;28;20729;-69
2023/02/19 07:46:46;;;;;;;21.47;16.40;;;11.70;99.90;;;;;;4993365;28;20178;-68
2023/02/19 07:49:11;;;;;;;17.97;16.07;;;11.70;99.90;;;;;;4993033;28;20220;-69
2023/02/19 07:51:38;;;;;;;18.57;16.63;;;11.70;99.90;;;;;;4993375;28;20179;-69
2023/02/19 07:54:04;;;;;;;19.03;16.63;;;11.70;99.90;;;;;;4993139;28;20519;-69
2023/02/19 07:56:30;;;;;;;23.27;17.60;;;11.60;99.90;;;;;;4992763;28;20449;-69
2023/02/19 07:58:56;;;;;;;20.20;17.60;;;11.60;99.90;;;;;;4993011;28;20446;-69
2023/02/19 08:02:58;;;;;;;20.70;17.80;;;11.60;99.90;;;;;;4975788;28;20182;-69
2023/02/19 08:04:10;;;;;;;17.20;14.97;;;11.60;99.90;;;;;;4992551;28;20226;-69
2023/02/19 08:06:36;;;;;;;17.50;15.70;;;11.70;99.90;;;;;;4993347;28;20413;-68
2023/02/19 08:09:04;;;;;;;19.47;15.50;;;11.60;99.90;;;;;;4993230;28;20420;-68
2023/02/19 08:14:14;;;;;;;16.77;15.07;;;11.60;99.90;;;;;;4999083;28;20424;-69
2023/02/19 08:16:48;;;;;;;19.27;15.40;;;11.50;99.90;;;;;;4982247;28;20497;-69
2023/02/19 08:19:13;;;;;;;17.30;15.63;;;11.50;99.90;;;;;;4999116;28;20387;-69
2023/02/19 08:21:39;;;;;;;17.83;15.93;;;11.60;99.90;;;;;;4999321;28;20473;-68
2023/02/19 08:24:05;;;;;;;18.53;16.63;;;11.50;99.90;;;;;;4999531;28;20302;-68
2023/02/19 08:26:32;;;;;;;17.40;15.73;;;11.50;99.90;;;;;;4999019;28;20630;-69
2023/02/19 08:28:57;;;;;;;18.77;16.13;;;11.50;99.90;;;;;;4999537;28;20459;-68
2023/02/19 08:31:23;;;;;;;20.10;16.97;;;11.50;99.90;;;;;;4998993;28;20422;-68
2023/02/19 08:33:49;;;;;;;18.73;16.73;;;11.50;99.90;;;;;;4999548;28;20182;-68
2023/02/19 08:36:15;;;;;;;17.87;15.97;;;11.60;99.90;;;;;;4998914;28;21010;-69
2023/02/19 08:38:40;;;;;;;19.50;16.37;;;11.70;99.90;;;;;;4999563;28;20180;-68
2023/02/19 08:41:08;;;;;;;17.67;16.17;;;11.60;99.90;;;;;;4999232;28;20179;-69
2023/02/19 08:43:34;;;;;;;17.43;15.63;;;11.60;99.90;;;;;;4998838;28;20591;-69
2023/02/19 08:46:01;;;;;;;15.73;14.13;;;11.70;99.90;;;;;;4999477;28;20755;-69
2023/02/19 08:48:26;;;;;;;16.60;15.00;;;11.60;99.90;;;;;;4998830;28;20409;-69
2023/02/19 08:50:54;;;;;;;16.63;13.40;;;11.60;99.90;;;;;;4999372;28;20430;-69
2023/02/19 08:53:19;;;;;;;15.40;12.80;;;11.70;99.90;;;;;;4998736;28;20600;-69
2023/02/19 08:55:45;;;;;;;16.33;14.20;;;11.60;99.90;;;;;;4999728;28;20505;-69
2023/02/19 08:58:11;;;;;;;15.27;13.27;;;11.70;99.90;;;;;;4982224;28;20172;-69
2023/02/19 09:00:36;;;;;;;13.23;12.03;;;11.70;99.90;;;;;;4999152;28;20262;-69
2023/02/19 09:03:02;;;;;;;14.50;13.00;;;11.70;99.90;;;;;;4999368;28;20203;-68
2023/02/19 09:05:28;;;;;;;15.50;14.00;;;11.80;99.90;;;;;;4998735;28;20254;-69
2023/02/19 09:07:53;;;;;;;17.07;13.93;;;11.80;99.90;;;;;;4999197;28;20269;-69
2023/02/19 09:10:19;;;;;;;15.70;13.90;;;11.80;99.90;;;;;;4998630;28;20536;-69
2023/02/19 09:12:45;;;;;;;17.90;15.53;;;11.90;99.90;;;;;;4999240;28;20314;-69
2023/02/19 09:15:10;;;;;;;21.13;16.43;;;11.90;99.90;;;;;;4999203;28;20184;-69
2023/02/19 09:17:36;;;;;;;19.80;17.43;;;11.90;99.90;;;;;;4998176;28;20179;-68
2023/02/19 09:20:03;;;;;;;20.10;17.90;;;11.90;99.90;;;;;;4999111;28;20175;-68
2023/02/19 09:22:28;;;;;;;20.83;17.00;;;11.90;99.90;;;;;;4996686;28;20686;-68
2023/02/19 09:24:54;;;;;;;17.67;15.77;;;11.90;99.90;;;;;;4996085;28;20513;-69
2023/02/19 09:27:20;;;;;;;20.03;16.70;;;11.90;99.90;;;;;;4995097;28;20182;-68
2023/02/19 09:29:45;;;;;;;17.90;16.07;;;11.90;99.90;;;;;;4995942;28;20179;-68
2023/02/19 09:32:12;;;;;;;18.73;15.87;;;12.00;99.90;;;;;;4995878;28;20416;-68
2023/02/19 09:34:38;;;;;;;19.13;17.13;;;12.00;99.90;;;;;;4977832;28;20176;-68
2023/02/19 09:37:05;;;;;;;21.03;15.83;;;12.00;99.90;;;;;;4995836;28;20414;-68
2023/02/19 09:39:32;;;;;;;16.57;14.67;;;12.00;99.90;;;;;;4995193;28;20426;-68
2023/02/19 09:42:11;;;;;;;20.73;15.77;;;12.00;99.90;;;;;;4995398;28;20422;-68
2023/02/19 09:44:39;;;;;;;19.30;16.10;;;12.10;99.90;;;;;;4995481;28;20506;-68
2023/02/19 09:47:14;;;;;;;19.00;15.93;;;12.10;99.90;;;;;;4994382;28;20776;-68
2023/02/19 09:49:48;;;;;;;20.87;16.67;;;12.00;99.90;;;;;;4995812;28;20425;-68
2023/02/19 09:52:29;;;;;;;18.50;16.10;;;12.10;99.90;;;;;;4995326;28;20435;-68
2023/02/19 09:55:01;;;;;;;21.00;17.67;;;12.00;99.90;;;;;;4995555;28;20748;-68
2023/02/19 09:57:29;;;;;;;20.27;17.43;;;12.00;99.90;;;;;;4994915;28;20484;-69
2023/02/19 10:00:12;;;;;;;25.90;19.33;;;12.00;99.90;;;;;;4995381;28;20810;-68
2023/02/19 10:02:38;;;;;;;20.83;17.07;;;12.10;99.90;;;;;;4994638;28;20857;-68
2023/02/19 10:05:15;;;;;;;19.80;17.67;;;12.10;99.90;;;;;;4995235;28;20742;-68
2023/02/19 10:07:46;;;;;;;20.50;17.70;;;12.20;99.90;;;;;;4995271;28;20396;-68
2023/02/19 10:10:12;;;;;;;20.83;17.20;;;12.20;99.90;;;;;;4995229;28;20419;-68
2023/02/19 10:12:40;;;;;;;21.90;17.73;;;12.20;99.90;;;;;;4994548;28;20487;-68
2023/02/19 10:15:19;;;;;;;20.00;16.50;;;12.10;99.90;;;;;;4995023;28;20193;-68
2023/02/19 10:17:45;;;;;;;20.83;16.53;;;12.20;99.90;;;;;;4995123;28;20740;-68
2023/02/19 10:20:17;;;;;;;17.33;15.60;;;12.20;99.90;;;;;;4977565;28;20490;-68
2023/02/19 10:22:43;;;;;;;19.13;15.87;;;12.30;99.90;;;;;;4995135;28;20205;-68
2023/02/19 10:25:14;;;;;;;17.30;15.40;;;12.30;99.90;;;;;;4994931;28;20418;-68
2023/02/19 10:27:39;;;;;;;18.00;14.40;;;12.30;99.90;;;;;;4994377;28;20456;-68
2023/02/19 10:30:14;;;;;;;13.53;12.13;;;12.40;99.90;;;;;;4994884;28;20441;-68
2023/02/19 10:33:08;;;;;;;14.63;13.33;;;12.30;99.90;;;;;;4994255;28;20178;-68
2023/02/19 10:35:36;;;;;;;12.77;11.57;;;12.30;99.90;;;;;;4993648;28;20953;-68
2023/02/19 10:38:05;;;;;;;13.33;12.03;;;12.30;99.90;;;;;;4994763;28;20824;-68
2023/02/19 10:40:32;;;;;;;13.03;11.63;;;12.30;99.90;;;;;;4993912;28;20414;-68
2023/02/19 10:43:03;;;;;;;13.30;12.17;;;12.30;99.90;;;;;;4994530;28;20481;-68
2023/02/19 10:45:47;;;;;;;13.40;12.00;;;12.40;99.90;;;;;;4993681;28;20455;-68
2023/02/19 10:48:33;;;;;;;12.80;11.40;;;12.20;99.90;;;;;;4994554;28;20406;-68
2023/02/19 10:51:04;;;;;;;11.50;10.30;;;12.30;99.90;;;;;;4994146;28;20450;-68
2023/02/19 10:53:42;;;;;;;12.23;11.03;;;12.40;99.90;;;;;;4993720;28;20412;-68
2023/02/19 10:56:23;;;;;;;11.90;10.70;;;12.50;99.90;;;;;;4994432;28;20465;-68
2023/02/19 10:58:49;;;;;;;11.90;10.80;;;12.60;99.90;;;;;;4994320;28;20483;-68
2023/02/19 11:01:18;;;;;;;11.20;10.20;;;12.70;99.90;;;;;;4976932;28;20906;-68
2023/02/19 11:03:46;;;;;;;12.60;11.20;;;12.80;99.90;;;;;;4994168;28;20943;-68
2023/02/19 11:06:14;;;;;;;11.53;10.43;;;12.90;99.90;;;;;;4994124;28;20764;-68
2023/02/19 11:08:53;;;;;;;12.53;11.47;;;12.90;99.90;;;;;;4993261;28;20506;-68
2023/02/19 11:11:31;;;;;;;13.07;11.77;;;13.00;99.90;;;;;;4993737;28;20469;-68
2023/02/19 11:14:00;;;;;;;10.57;9.60;;;13.10;99.90;;;;;;4993948;28;20434;-68
2023/02/19 11:17:00;;;;;;;10.77;9.67;;;13.10;99.90;;;;;;4993360;28;20511;-68
2023/02/19 11:19:28;;;;;;;10.50;9.50;;;13.10;99.90;;;;;;4930629;28;20433;-68
2023/02/19 11:21:54;;;;;;;9.87;8.87;;;13.10;99.90;;;;;;4993752;28;20777;-68
2023/02/19 11:24:33;;;;;;;8.10;7.40;;;13.10;99.90;;;;;;4976017;28;20458;-70
2023/02/19 11:27:06;;;;;;;8.63;7.93;;;13.00;99.90;;;;;;4993860;28;20460;-68
2023/02/19 11:29:35;;;;;;;9.83;8.83;;;12.80;99.90;;;;;;4992545;28;20890;-68
2023/02/19 11:32:19;;;;;;;8.53;7.80;;;12.80;99.90;;;;;;4993419;28;20412;-68
2023/02/19 11:34:46;;;;;;;8.17;7.37;;;12.80;99.90;;;;;;4993458;28;20432;-68
2023/02/19 11:37:17;;;;;;;7.80;7.10;;;12.80;99.90;;;;;;4993671;28;20416;-68
2023/02/19 11:39:51;;;;;;;7.80;7.03;;;12.80;99.90;;;;;;4975633;28;20421;-68
2023/02/19 11:43:00;;;;;;;8.10;7.30;;;12.90;99.90;;;;;;4993947;28;20788;-68
2023/02/19 11:45:40;;;;;;;7.87;7.10;;;12.90;99.90;;;;;;4966573;28;20445;-68
2023/02/19 11:48:31;;;;;;;7.50;6.70;;;12.90;99.90;;;;;;4993462;28;20407;-68
2023/02/19 11:51:37;;;;;;;7.67;6.77;;;12.90;99.90;;;;;;4993869;28;20963;-68
2023/02/19 11:54:34;;;;;;;9.33;8.33;;;12.80;99.90;;;;;;4993483;28;20417;-68
2023/02/19 11:57:34;;;;;;;10.37;9.50;;;12.80;99.90;;;;;;4993373;28;20480;-68
2023/02/19 12:00:15;;;;;;;11.97;10.77;;;12.80;99.90;;;;;;4993473;28;20449;-68
2023/02/19 12:03:17;;;;;;;12.07;10.93;;;12.90;99.90;;;;;;4992648;28;20828;-68
2023/02/19 12:06:16;;;;;;;11.70;10.53;;;12.90;99.90;;;;;;4992907;28;20859;-68
2023/02/19 12:08:57;;;;;;;9.60;8.80;;;12.90;99.90;;;;;;4992680;28;20413;-68
2023/02/19 12:11:33;;;;;;;9.20;8.40;;;13.10;99.90;;;;;;4992206;28;20568;-68
2023/02/19 12:14:28;;;;;;;9.77;8.00;;;13.20;99.90;;;;;;4993141;28;20516;-68
2023/02/19 12:17:04;;;;;;;8.30;7.60;;;13.20;99.90;;;;;;4993197;28;20777;-68
2023/02/19 12:20:13;;;;;;;9.33;8.43;;;13.30;99.90;;;;;;4992015;28;20413;-68
2023/02/19 12:23:01;;;;;;;10.00;7.70;;;13.20;99.90;;;;;;4992186;28;20458;-68
2023/02/19 12:25:42;;;;;;;8.77;7.83;;;13.30;99.90;;;;;;4992557;28;20414;-68
2023/02/19 12:28:48;;;;;;;7.67;7.07;;;13.40;99.90;;;;;;4993112;28;20418;-68
2023/02/19 12:31:33;;;;;;;8.33;7.60;;;13.40;99.90;;;;;;4976783;28;20910;-68
2023/02/19 12:34:14;;;;;;;7.60;7.10;;;13.50;99.90;;;;;;4993074;28;20414;-68
2023/02/19 12:36:58;;;;;;;8.13;7.43;;;13.40;99.90;;;;;;4992358;28;20420;-68
2023/02/19 12:39:45;;;;;;;8.30;7.50;;;13.40;99.90;;;;;;4992806;28;20402;-68
2023/02/19 12:42:39;;;;;;;6.57;6.07;;;13.40;99.90;;;;;;4993052;28;20434;-68
2023/02/19 12:45:28;;;;;;;6.70;6.20;;;13.30;99.90;;;;;;4992662;28;20423;-68
2023/02/19 12:48:32;;;;;;;5.90;5.40;;;13.20;99.90;;;;;;4992840;28;20443;-68
2023/02/19 12:51:22;;;;;;;4.97;4.67;;;13.10;99.90;;;;;;4989469;28;20430;-68
2023/02/19 12:53:48;;;;;;;5.50;5.20;;;13.00;99.90;;;;;;4992287;28;20419;-68
2023/02/19 12:56:21;;;;;;;5.90;5.50;;;12.90;99.90;;;;;;4992719;28;20426;-68
2023/02/19 12:58:55;;;;;;;6.27;5.60;;;12.80;99.90;;;;;;4995682;28;20216;-68
2023/02/19 13:01:29;;;;;;;5.30;4.97;;;12.90;99.90;;;;;;4996279;28;20413;-68
2023/02/19 13:04:00;;;;;;;6.00;5.50;;;12.90;99.90;;;;;;4996087;28;20515;-68
2023/02/19 13:06:41;;;;;;;6.00;5.47;;;12.90;99.90;;;;;;4996001;28;20473;-68
2023/02/19 13:09:29;;;;;;;4.97;4.67;;;12.90;99.90;;;;;;4996496;28;20432;-68
2023/02/19 13:11:58;;;;;;;5.83;5.17;;;12.90;99.90;;;;;;4996059;28;20462;-68
2023/02/19 13:14:29;;;;;;;5.30;4.90;;;13.00;99.90;;;;;;4995845;28;20924;-68
2023/02/19 13:17:02;;;;;;;5.50;5.10;;;12.90;99.90;;;;;;4996326;28;20409;-68